Time;durP1;ratioP1;P1;durP2;ratioP2;P2;SDS_P1;SDS_P2;PMS_P1;PMS_P2;Temp;Humidity;BMP_temperature;BMP_pressure;BME280_temperature;BME280_humidity;BME280_pressure;Samples;Min_cycle;Max_cycle;Signal;HPM_P1;HPM_P2
2021/08/27 00:06:23;;;;;;;2.13;0.47;;;14.20;99.90;;;;;;20470364;28;20039;-44
2021/08/27 00:16:24;;;;;;;2.88;0.47;;;14.00;99.90;;;;;;20479419;28;20398;-44
2021/08/27 00:26:25;;;;;;;1.00;0.40;;;14.00;99.90;;;;;;20469828;28;20050;-44
2021/08/27 00:36:26;;;;;;;2.72;0.60;;;14.00;99.90;;;;;;20472888;28;20470;-44
2021/08/27 00:46:27;;;;;;;0.73;0.60;;;13.80;99.90;;;;;;20472191;28;20392;-44
2021/08/27 00:56:30;;;;;;;2.33;0.35;;;13.70;99.90;;;;;;20476580;28;20050;-43
2021/08/27 01:06:42;;;;;;;1.88;0.30;;;13.70;99.90;;;;;;20472371;28;20039;-43
2021/08/27 01:17:16;;;;;;;2.78;1.15;;;13.60;99.90;;;;;;20480718;28;20058;-44
2021/08/27 01:27:18;;;;;;;1.63;0.75;;;13.50;99.90;;;;;;20488335;28;20059;-46
2021/08/27 01:37:22;;;;;;;13.25;0.77;;;13.40;99.90;;;;;;20516761;28;20039;-44
2021/08/27 01:47:31;;;;;;;1.05;0.20;;;13.30;99.90;;;;;;20538435;28;21492;-43
2021/08/27 01:57:33;;;;;;;3.25;0.40;;;13.30;99.90;;;;;;20548309;28;20484;-43
2021/08/27 02:07:36;;;;;;;1.73;0.50;;;13.30;99.90;;;;;;20547326;28;20043;-43
2021/08/27 02:17:37;;;;;;;4.88;0.30;;;13.30;99.90;;;;;;20542000;28;20073;-44
2021/08/27 02:27:42;;;;;;;0.77;0.30;;;13.20;99.90;;;;;;20549449;28;20042;-44
2021/08/27 02:37:45;;;;;;;1.27;0.30;;;13.20;99.90;;;;;;20543221;28;20546;-43
2021/08/27 02:47:46;;;;;;;1.80;0.20;;;13.10;99.90;;;;;;20531109;28;20046;-43
2021/08/27 02:57:59;;;;;;;2.55;0.60;;;13.10;99.90;;;;;;20530464;28;20043;-43
2021/08/27 03:08:03;;;;;;;0.32;0.20;;;13.10;99.90;;;;;;20536094;28;20290;-43
2021/08/27 03:18:17;;;;;;;2.67;0.38;;;13.20;99.90;;;;;;20532072;28;20055;-44
2021/08/27 03:28:24;;;;;;;4.28;0.90;;;13.10;99.90;;;;;;20521972;28;20043;-46
2021/08/27 03:38:27;;;;;;;0.95;0.55;;;13.30;99.90;;;;;;20524089;28;20042;-44
2021/08/27 03:48:29;;;;;;;1.00;0.10;;;13.50;99.90;;;;;;20536126;28;20031;-44
2021/08/27 03:58:30;;;;;;;2.28;0.20;;;13.80;99.90;;;;;;20523775;28;20043;-44
2021/08/27 04:08:36;;;;;;;0.25;0.03;;;14.00;99.90;;;;;;20537921;28;20046;-44
2021/08/27 04:18:37;;;;;;;0.68;0.10;;;14.20;99.90;;;;;;20523177;28;20070;-44
2021/08/27 04:28:38;;;;;;;0.90;0.35;;;14.40;99.90;;;;;;20529385;28;20050;-44
2021/08/27 04:38:39;;;;;;;2.75;0.30;;;14.40;99.90;;;;;;20487029;28;21742;-44
2021/08/27 04:48:40;;;;;;;1.90;0.40;;;14.50;99.90;;;;;;20442491;28;20051;-43
2021/08/27 04:58:41;;;;;;;1.60;0.17;;;14.60;99.90;;;;;;20441295;28;20054;-44
2021/08/27 05:08:42;;;;;;;0.80;0.20;;;14.50;99.90;;;;;;20443121;28;20411;-43
2021/08/27 05:18:43;;;;;;;0.52;0.25;;;14.20;99.90;;;;;;20439561;28;20058;-44
2021/08/27 05:28:46;;;;;;;0.13;0.10;;;14.00;99.90;;;;;;20431688;28;20805;-46
2021/08/27 05:38:48;;;;;;;0.80;0.20;;;13.90;99.90;;;;;;20442774;28;20058;-44
2021/08/27 05:48:49;;;;;;;3.33;0.20;;;13.90;99.90;;;;;;20469687;28;20038;-43
2021/08/27 05:58:50;;;;;;;1.38;0.20;;;13.90;99.90;;;;;;20472796;28;20525;-43
2021/08/27 06:08:52;;;;;;;1.70;0.68;;;13.90;99.90;;;;;;20486289;28;20047;-44
2021/08/27 06:18:55;;;;;;;0.68;0.20;;;13.90;99.90;;;;;;20473770;28;20043;-44
2021/08/27 06:28:59;;;;;;;0.35;0.10;;;14.00;99.90;;;;;;20501812;28;20553;-44
2021/08/27 06:39:01;;;;;;;0.77;0.20;;;14.50;99.90;;;;;;20502673;28;20050;-44
2021/08/27 06:49:02;;;;;;;1.15;0.40;;;15.00;99.90;;;;;;20508437;28;20388;-44
2021/08/27 06:59:03;;;;;;;1.20;0.30;;;15.40;99.90;;;;;;20527395;28;20071;-44
2021/08/27 07:09:04;;;;;;;1.48;0.20;;;15.70;99.90;;;;;;20531661;28;20047;-44
2021/08/27 07:19:05;;;;;;;1.88;0.22;;;16.00;99.90;;;;;;20535655;28;20070;-44
2021/08/27 07:29:07;;;;;;;0.80;0.30;;;16.30;99.90;;;;;;20514191;28;20050;-44
2021/08/27 07:39:08;;;;;;;2.58;1.13;;;16.50;99.90;;;;;;20449609;28;20050;-44
2021/08/27 07:49:09;;;;;;;1.27;0.10;;;16.80;99.90;;;;;;20424320;28;20058;-44
2021/08/27 07:59:10;;;;;;;2.78;0.40;;;16.90;99.90;;;;;;20456663;28;20058;-44
2021/08/27 08:09:12;;;;;;;2.45;0.20;;;17.10;99.90;;;;;;20462368;28;20472;-44
2021/08/27 08:19:14;;;;;;;0.85;0.30;;;17.20;99.90;;;;;;20440298;28;20535;-46
2021/08/27 08:29:15;;;;;;;0.73;0.20;;;17.30;99.90;;;;;;20454791;28;20043;-44
2021/08/27 08:39:17;;;;;;;1.95;0.20;;;17.60;99.90;;;;;;20452616;28;20403;-44
2021/08/27 08:49:20;;;;;;;0.60;0.20;;;17.60;99.90;;;;;;20479541;28;20043;-45
2021/08/27 08:59:22;;;;;;;5.55;0.45;;;17.40;99.90;;;;;;20475069;28;20153;-44
2021/08/27 09:09:33;;;;;;;1.35;0.17;;;17.20;99.90;;;;;;20471775;28;20043;-44
2021/08/27 09:19:53;;;;;;;0.85;0.20;;;17.10;99.90;;;;;;20461461;28;20039;-44
2021/08/27 09:29:54;;;;;;;1.38;0.38;;;17.10;99.90;;;;;;20509727;28;20045;-44
2021/08/27 09:40:02;;;;;;;3.97;1.52;;;17.50;99.90;;;;;;20477725;28;20062;-44
2021/08/27 09:50:24;;;;;;;1.63;0.43;;;18.00;99.90;;;;;;20439708;28;20055;-45
2021/08/27 10:00:25;;;;;;;1.63;0.47;;;18.40;99.90;;;;;;20462600;28;20051;-44
2021/08/27 10:10:26;;;;;;;2.20;0.50;;;18.50;99.90;;;;;;20466650;28;20039;-44
2021/08/27 10:20:31;;;;;;;0.85;0.30;;;19.30;99.90;;;;;;20484562;28;20051;-45
2021/08/27 10:30:51;;;;;;;1.38;0.40;;;19.40;99.90;;;;;;20436104;28;20043;-44
2021/08/27 10:41:17;;;;;;;0.88;0.50;;;19.20;99.90;;;;;;20475779;28;20050;-44
2021/08/27 10:51:36;;;;;;;1.38;0.30;;;18.90;99.90;;;;;;20482771;28;20446;-45
2021/08/27 11:02:00;;;;;;;0.90;0.20;;;18.60;99.90;;;;;;20486513;28;20055;-45
2021/08/27 11:12:08;;;;;;;2.33;0.68;;;19.20;99.90;;;;;;20480536;28;20188;-44
2021/08/27 11:22:09;;;;;;;1.52;0.20;;;18.90;99.90;;;;;;20481086;28;20046;-44
2021/08/27 11:32:16;;;;;;;2.90;0.40;;;17.60;99.90;;;;;;20473867;28;20066;-44
2021/08/27 11:42:19;;;;;;;1.43;0.20;;;16.80;99.90;;;;;;20496949;28;20511;-44
2021/08/27 11:52:23;;;;;;;1.63;0.22;;;16.60;99.90;;;;;;20487759;28;21653;-44
2021/08/27 12:02:25;;;;;;;3.38;0.40;;;17.10;99.90;;;;;;20479137;28;20093;-44
2021/08/27 12:12:31;;;;;;;0.82;0.20;;;17.70;99.90;;;;;;20477696;28;20557;-44
2021/08/27 12:22:39;;;;;;;2.60;0.90;;;18.20;99.90;;;;;;20483835;28;20055;-44
2021/08/27 12:32:43;;;;;;;1.35;0.22;;;18.50;99.90;;;;;;20474914;28;20043;-44
2021/08/27 12:43:02;;;;;;;2.30;0.45;;;18.70;99.90;;;;;;20534723;28;20050;-44
2021/08/27 12:53:05;;;;;;;2.80;0.22;;;18.60;99.90;;;;;;20508984;28;20059;-45
2021/08/27 13:03:12;;;;;;;2.58;0.20;;;19.90;99.90;;;;;;20516473;28;20050;-44
2021/08/27 13:13:24;;;;;;;1.80;0.37;;;19.20;99.90;;;;;;20504707;28;20071;-45
2021/08/27 13:23:26;;;;;;;2.17;0.38;;;18.00;99.90;;;;;;20538452;28;20441;-44
2021/08/27 13:33:27;;;;;;;3.92;0.52;;;17.40;99.90;;;;;;20521662;28;20454;-44
2021/08/27 13:43:31;;;;;;;13.52;1.52;;;16.50;99.90;;;;;;20508769;28;20047;-44
2021/08/27 13:53:33;;;;;;;1.65;0.60;;;17.20;99.90;;;;;;20512509;28;20047;-44
2021/08/27 14:03:34;;;;;;;1.15;0.80;;;17.40;99.90;;;;;;20492836;28;20051;-44
2021/08/27 14:13:35;;;;;;;1.83;0.47;;;17.10;99.90;;;;;;20513558;28;20065;-44
2021/08/27 14:23:36;;;;;;;3.47;0.50;;;17.70;99.90;;;;;;20488557;28;20423;-44
2021/08/27 14:33:46;;;;;;;2.90;1.38;;;17.40;99.90;;;;;;20512671;28;20054;-44
2021/08/27 14:43:47;;;;;;;9.02;0.50;;;18.30;99.90;;;;;;20449897;28;20051;-45
2021/08/27 14:53:48;;;;;;;1.83;0.38;;;18.10;99.90;;;;;;20455252;28;20527;-45
2021/08/27 15:03:51;;;;;;;9.75;0.85;;;18.20;99.90;;;;;;20447225;28;20050;-44
2021/08/27 15:13:52;;;;;;;1.77;0.35;;;18.40;99.90;;;;;;20462130;28;20047;-44
2021/08/27 15:23:53;;;;;;;2.08;0.30;;;18.50;99.90;;;;;;20427832;28;20495;-44
2021/08/27 15:33:54;;;;;;;1.10;0.68;;;18.60;99.90;;;;;;20439693;28;20617;-44
2021/08/27 15:43:56;;;;;;;2.17;0.30;;;18.40;99.90;;;;;;20477373;28;20046;-44
2021/08/27 15:53:58;;;;;;;1.35;0.60;;;18.20;99.90;;;;;;20473391;28;20053;-44
2021/08/27 16:03:59;;;;;;;4.90;0.40;;;18.30;99.90;;;;;;20472013;28;20408;-44
2021/08/27 16:14:05;;;;;;;0.55;0.10;;;18.10;99.90;;;;;;20470010;28;20055;-44
2021/08/27 16:24:07;;;;;;;2.80;0.30;;;18.00;99.90;;;;;;20473544;28;20066;-44
2021/08/27 16:34:08;;;;;;;1.27;0.20;;;17.90;99.90;;;;;;20468709;28;20495;-44
2021/08/27 16:44:10;;;;;;;1.17;0.20;;;18.00;99.90;;;;;;20476632;28;20530;-44
2021/08/27 16:54:13;;;;;;;0.98;0.20;;;17.80;99.90;;;;;;20476266;28;20058;-44
2021/08/27 17:04:14;;;;;;;2.60;0.20;;;17.00;99.90;;;;;;20470359;28;20043;-44
2021/08/27 17:14:15;;;;;;;1.17;0.10;;;16.90;99.90;;;;;;20475549;28;20046;-44
2021/08/27 17:24:16;;;;;;;0.75;0.20;;;16.70;99.90;;;;;;20469327;28;20058;-44
2021/08/27 17:34:17;;;;;;;3.70;0.30;;;16.70;99.90;;;;;;20475677;28;20254;-44
2021/08/27 17:44:18;;;;;;;3.05;0.30;;;16.70;99.90;;;;;;20415361;28;20055;-44
2021/08/27 17:54:20;;;;;;;4.00;0.30;;;16.70;99.90;;;;;;20420389;28;20389;-44
2021/08/27 18:04:21;;;;;;;0.88;0.30;;;16.60;99.90;;;;;;20442658;28;20382;-44
2021/08/27 18:14:22;;;;;;;2.20;0.38;;;16.60;99.90;;;;;;20446325;28;20047;-44
2021/08/27 18:24:25;;;;;;;1.73;0.38;;;16.60;99.90;;;;;;20434527;28;20396;-44
2021/08/27 18:34:31;;;;;;;2.00;0.60;;;16.50;99.90;;;;;;20465398;28;20181;-44
2021/08/27 18:44:32;;;;;;;1.52;0.75;;;16.50;99.90;;;;;;20542241;28;20058;-44
2021/08/27 18:54:34;;;;;;;5.50;1.15;;;16.40;99.90;;;;;;20533364;28;20412;-44
2021/08/27 19:04:35;;;;;;;1.90;0.40;;;16.30;99.90;;;;;;20529112;28;20050;-44
2021/08/27 19:14:36;;;;;;;4.85;0.40;;;16.30;99.90;;;;;;20538132;28;20038;-44
2021/08/27 19:24:37;;;;;;;2.75;0.40;;;16.20;99.90;;;;;;20513670;28;20054;-44
2021/08/27 19:34:38;;;;;;;1.67;0.85;;;16.20;99.90;;;;;;20535047;28;21767;-44
2021/08/27 19:44:44;;;;;;;1.73;0.32;;;16.10;99.90;;;;;;20551461;28;20043;-44
2021/08/27 19:54:45;;;;;;;2.65;0.52;;;16.10;99.90;;;;;;20543707;28;20060;-44
2021/08/27 20:04:46;;;;;;;1.42;0.75;;;16.00;99.90;;;;;;20540034;28;20494;-44
2021/08/27 20:14:47;;;;;;;2.50;0.60;;;15.90;99.90;;;;;;20527381;28;20041;-44
2021/08/27 20:24:48;;;;;;;4.32;1.40;;;15.90;99.90;;;;;;20523128;28;20499;-44
2021/08/27 20:34:49;;;;;;;2.58;0.43;;;15.80;99.90;;;;;;20512659;28;20047;-44
2021/08/27 20:44:50;;;;;;;1.27;0.50;;;15.80;99.90;;;;;;20513979;28;20530;-44
2021/08/27 20:54:51;;;;;;;3.25;0.70;;;15.80;99.90;;;;;;20514175;28;20042;-44
2021/08/27 21:04:52;;;;;;;5.68;0.90;;;15.80;99.90;;;;;;20517544;28;20050;-44
2021/08/27 21:14:53;;;;;;;3.42;0.80;;;15.80;99.90;;;;;;20513120;28;20395;-44
2021/08/27 21:24:55;;;;;;;5.13;1.00;;;15.70;99.90;;;;;;20523127;28;20042;-44
2021/08/27 21:34:56;;;;;;;3.92;0.80;;;15.70;99.90;;;;;;20520689;28;20051;-44
2021/08/27 21:44:57;;;;;;;5.75;1.42;;;15.50;99.90;;;;;;20560322;28;20046;-44
2021/08/27 21:54:58;;;;;;;2.08;0.70;;;15.50;99.90;;;;;;20555820;28;20046;-44
2021/08/27 22:04:59;;;;;;;3.40;0.55;;;15.30;99.90;;;;;;20547441;28;20380;-44
2021/08/27 22:15:00;;;;;;;4.82;0.90;;;15.30;99.90;;;;;;20562548;28;20489;-44
2021/08/27 22:25:03;;;;;;;2.08;0.93;;;15.30;99.90;;;;;;20551817;28;20581;-44
2021/08/27 22:35:04;;;;;;;2.45;0.60;;;15.30;99.90;;;;;;20555405;28;20503;-44
2021/08/27 22:45:06;;;;;;;1.85;0.50;;;15.30;99.90;;;;;;20521945;28;20055;-44
2021/08/27 22:55:09;;;;;;;3.47;0.70;;;15.20;99.90;;;;;;20515530;28;20039;-44
2021/08/27 23:05:11;;;;;;;2.08;0.80;;;15.20;99.90;;;;;;20521462;28;20055;-44
2021/08/27 23:15:12;;;;;;;3.88;0.68;;;15.20;99.90;;;;;;20507938;28;20635;-44
2021/08/27 23:25:13;;;;;;;3.45;0.80;;;15.30;99.90;;;;;;20510192;28;20063;-44
2021/08/27 23:35:14;;;;;;;2.15;1.33;;;15.30;99.90;;;;;;20522693;28;20042;-44
2021/08/27 23:45:16;;;;;;;2.17;1.15;;;15.40;99.90;;;;;;20518275;28;20051;-44
2021/08/27 23:55:17;;;;;;;2.42;1.20;;;15.50;99.90;;;;;;20524375;28;20051;-44
